sensor_id;sensor_type;location;lat;lon;timestamp;P1;durP1;ratioP1;P2;durP2;ratioP2
22525;SDS011;11429;50.842;4.386;2023-04-24T00:00:00;23.52;;;12.98;;
22525;SDS011;11429;50.842;4.386;2023-04-24T00:02:34;17.45;;;12.20;;
22525;SDS011;11429;50.842;4.386;2023-04-24T00:04:59;20.48;;;12.48;;
22525;SDS011;11429;50.842;4.386;2023-04-24T00:07:28;23.77;;;12.85;;
22525;SDS011;11429;50.842;4.386;2023-04-24T00:10:00;19.00;;;12.88;;
22525;SDS011;11429;50.842;4.386;2023-04-24T00:12:26;22.23;;;13.05;;
22525;SDS011;11429;50.842;4.386;2023-04-24T00:14:52;23.17;;;13.65;;
22525;SDS011;11429;50.842;4.386;2023-04-24T00:17:18;17.85;;;12.63;;
22525;SDS011;11429;50.842;4.386;2023-04-24T00:19:47;20.92;;;13.48;;
22525;SDS011;11429;50.842;4.386;2023-04-24T00:22:13;19.73;;;13.35;;
22525;SDS011;11429;50.842;4.386;2023-04-24T00:24:39;18.95;;;14.00;;
22525;SDS011;11429;50.842;4.386;2023-04-24T00:27:05;20.75;;;13.05;;
22525;SDS011;11429;50.842;4.386;2023-04-24T00:29:31;21.17;;;13.63;;
22525;SDS011;11429;50.842;4.386;2023-04-24T00:31:57;23.70;;;13.63;;
22525;SDS011;11429;50.842;4.386;2023-04-24T00:34:22;19.45;;;13.52;;
22525;SDS011;11429;50.842;4.386;2023-04-24T00:36:48;19.48;;;13.65;;
22525;SDS011;11429;50.842;4.386;2023-04-24T00:39:17;23.50;;;13.88;;
22525;SDS011;11429;50.842;4.386;2023-04-24T00:41:43;23.08;;;13.15;;
22525;SDS011;11429;50.842;4.386;2023-04-24T00:44:10;19.58;;;13.13;;
22525;SDS011;11429;50.842;4.386;2023-04-24T00:46:36;21.60;;;13.70;;
22525;SDS011;11429;50.842;4.386;2023-04-24T00:49:02;23.20;;;13.23;;
22525;SDS011;11429;50.842;4.386;2023-04-24T00:51:29;23.33;;;13.02;;
22525;SDS011;11429;50.842;4.386;2023-04-24T00:53:55;26.13;;;13.95;;
22525;SDS011;11429;50.842;4.386;2023-04-24T00:56:21;25.20;;;13.73;;
22525;SDS011;11429;50.842;4.386;2023-04-24T00:58:48;19.58;;;13.52;;
22525;SDS011;11429;50.842;4.386;2023-04-24T01:01:14;21.13;;;12.98;;
22525;SDS011;11429;50.842;4.386;2023-04-24T01:03:40;23.58;;;12.60;;
22525;SDS011;11429;50.842;4.386;2023-04-24T01:06:06;19.83;;;13.35;;
22525;SDS011;11429;50.842;4.386;2023-04-24T01:08:32;24.25;;;14.10;;
22525;SDS011;11429;50.842;4.386;2023-04-24T01:10:59;29.70;;;13.90;;
22525;SDS011;11429;50.842;4.386;2023-04-24T01:13:28;20.83;;;13.30;;
22525;SDS011;11429;50.842;4.386;2023-04-24T01:15:54;23.05;;;13.80;;
22525;SDS011;11429;50.842;4.386;2023-04-24T01:18:19;24.00;;;13.88;;
22525;SDS011;11429;50.842;4.386;2023-04-24T01:20:46;21.15;;;12.75;;
22525;SDS011;11429;50.842;4.386;2023-04-24T01:23:15;21.55;;;12.70;;
22525;SDS011;11429;50.842;4.386;2023-04-24T01:25:42;18.58;;;12.75;;
22525;SDS011;11429;50.842;4.386;2023-04-24T01:28:08;24.48;;;13.52;;
22525;SDS011;11429;50.842;4.386;2023-04-24T01:30:33;19.27;;;13.40;;
22525;SDS011;11429;50.842;4.386;2023-04-24T01:32:59;20.50;;;12.45;;
22525;SDS011;11429;50.842;4.386;2023-04-24T01:35:26;19.08;;;13.18;;
22525;SDS011;11429;50.842;4.386;2023-04-24T01:37:52;21.92;;;12.80;;
22525;SDS011;11429;50.842;4.386;2023-04-24T01:40:17;20.85;;;13.68;;
22525;SDS011;11429;50.842;4.386;2023-04-24T01:42:43;21.67;;;12.48;;
22525;SDS011;11429;50.842;4.386;2023-04-24T01:45:10;14.45;;;12.07;;
22525;SDS011;11429;50.842;4.386;2023-04-24T01:47:37;19.13;;;11.43;;
22525;SDS011;11429;50.842;4.386;2023-04-24T01:50:04;19.13;;;11.98;;
22525;SDS011;11429;50.842;4.386;2023-04-24T01:52:30;21.35;;;12.52;;
22525;SDS011;11429;50.842;4.386;2023-04-24T01:55:01;18.08;;;12.50;;
22525;SDS011;11429;50.842;4.386;2023-04-24T01:57:28;20.02;;;12.48;;
22525;SDS011;11429;50.842;4.386;2023-04-24T01:59:55;20.48;;;12.77;;
22525;SDS011;11429;50.842;4.386;2023-04-24T02:02:21;19.80;;;12.35;;
22525;SDS011;11429;50.842;4.386;2023-04-24T02:04:49;20.05;;;12.63;;
22525;SDS011;11429;50.842;4.386;2023-04-24T02:07:18;21.13;;;13.00;;
22525;SDS011;11429;50.842;4.386;2023-04-24T02:09:43;22.38;;;13.50;;
22525;SDS011;11429;50.842;4.386;2023-04-24T02:12:09;18.42;;;13.13;;
22525;SDS011;11429;50.842;4.386;2023-04-24T02:14:35;22.65;;;14.07;;
22525;SDS011;11429;50.842;4.386;2023-04-24T02:17:00;24.73;;;13.95;;
22525;SDS011;11429;50.842;4.386;2023-04-24T02:19:26;21.17;;;14.25;;
22525;SDS011;11429;50.842;4.386;2023-04-24T02:21:52;20.50;;;15.38;;
22525;SDS011;11429;50.842;4.386;2023-04-24T02:24:17;20.73;;;14.75;;
22525;SDS011;11429;50.842;4.386;2023-04-24T02:26:43;24.50;;;15.32;;
22525;SDS011;11429;50.842;4.386;2023-04-24T02:29:09;23.30;;;15.48;;
22525;SDS011;11429;50.842;4.386;2023-04-24T02:31:34;23.00;;;16.08;;
22525;SDS011;11429;50.842;4.386;2023-04-24T02:34:00;22.15;;;14.73;;
22525;SDS011;11429;50.842;4.386;2023-04-24T02:36:26;20.23;;;14.57;;
22525;SDS011;11429;50.842;4.386;2023-04-24T02:38:51;27.15;;;15.88;;
22525;SDS011;11429;50.842;4.386;2023-04-24T02:41:17;19.55;;;13.98;;
22525;SDS011;11429;50.842;4.386;2023-04-24T02:43:43;22.40;;;13.68;;
22525;SDS011;11429;50.842;4.386;2023-04-24T02:46:08;24.80;;;13.45;;
22525;SDS011;11429;50.842;4.386;2023-04-24T02:48:34;19.52;;;13.30;;
22525;SDS011;11429;50.842;4.386;2023-04-24T02:51:00;20.75;;;13.60;;
22525;SDS011;11429;50.842;4.386;2023-04-24T02:53:25;16.52;;;12.85;;
22525;SDS011;11429;50.842;4.386;2023-04-24T02:55:51;20.65;;;13.50;;
22525;SDS011;11429;50.842;4.386;2023-04-24T02:58:17;19.67;;;13.43;;
22525;SDS011;11429;50.842;4.386;2023-04-24T03:00:45;21.27;;;13.27;;
22525;SDS011;11429;50.842;4.386;2023-04-24T03:03:11;16.10;;;12.38;;
22525;SDS011;11429;50.842;4.386;2023-04-24T03:05:37;20.75;;;12.70;;
22525;SDS011;11429;50.842;4.386;2023-04-24T03:08:03;16.73;;;12.43;;
22525;SDS011;11429;50.842;4.386;2023-04-24T03:10:29;15.45;;;11.80;;
22525;SDS011;11429;50.842;4.386;2023-04-24T03:12:54;18.20;;;11.93;;
22525;SDS011;11429;50.842;4.386;2023-04-24T03:15:20;13.95;;;10.80;;
22525;SDS011;11429;50.842;4.386;2023-04-24T03:17:46;16.42;;;11.32;;
22525;SDS011;11429;50.842;4.386;2023-04-24T03:20:11;18.02;;;11.18;;
22525;SDS011;11429;50.842;4.386;2023-04-24T03:22:37;16.85;;;11.80;;
22525;SDS011;11429;50.842;4.386;2023-04-24T03:25:03;15.13;;;10.60;;
22525;SDS011;11429;50.842;4.386;2023-04-24T03:27:30;22.35;;;10.82;;
22525;SDS011;11429;50.842;4.386;2023-04-24T03:29:55;18.48;;;10.32;;
22525;SDS011;11429;50.842;4.386;2023-04-24T03:32:21;18.70;;;9.65;;
22525;SDS011;11429;50.842;4.386;2023-04-24T03:34:48;14.88;;;10.45;;
22525;SDS011;11429;50.842;4.386;2023-04-24T03:37:15;15.48;;;10.07;;
22525;SDS011;11429;50.842;4.386;2023-04-24T03:39:41;15.38;;;10.30;;
22525;SDS011;11429;50.842;4.386;2023-04-24T03:42:07;13.02;;;9.85;;
22525;SDS011;11429;50.842;4.386;2023-04-24T03:44:33;17.10;;;9.85;;
22525;SDS011;11429;50.842;4.386;2023-04-24T03:46:59;13.30;;;9.20;;
22525;SDS011;11429;50.842;4.386;2023-04-24T03:49:25;14.55;;;10.57;;
22525;SDS011;11429;50.842;4.386;2023-04-24T03:51:51;13.90;;;9.27;;
22525;SDS011;11429;50.842;4.386;2023-04-24T03:54:18;12.13;;;9.32;;
22525;SDS011;11429;50.842;4.386;2023-04-24T03:56:44;11.95;;;9.02;;
22525;SDS011;11429;50.842;4.386;2023-04-24T03:59:10;11.70;;;9.35;;
22525;SDS011;11429;50.842;4.386;2023-04-24T04:01:35;11.73;;;8.68;;
22525;SDS011;11429;50.842;4.386;2023-04-24T04:04:05;12.18;;;8.13;;
22525;SDS011;11429;50.842;4.386;2023-04-24T04:06:31;11.80;;;7.70;;
22525;SDS011;11429;50.842;4.386;2023-04-24T04:08:57;10.20;;;7.40;;
22525;SDS011;11429;50.842;4.386;2023-04-24T04:11:24;11.10;;;7.43;;
22525;SDS011;11429;50.842;4.386;2023-04-24T04:13:49;12.82;;;7.90;;
22525;SDS011;11429;50.842;4.386;2023-04-24T04:16:15;9.00;;;7.50;;
22525;SDS011;11429;50.842;4.386;2023-04-24T04:18:42;11.75;;;7.93;;
22525;SDS011;11429;50.842;4.386;2023-04-24T04:21:08;9.25;;;7.10;;
22525;SDS011;11429;50.842;4.386;2023-04-24T04:23:34;8.75;;;7.07;;
22525;SDS011;11429;50.842;4.386;2023-04-24T04:26:00;9.57;;;6.30;;
22525;SDS011;11429;50.842;4.386;2023-04-24T04:28:26;10.00;;;6.78;;
22525;SDS011;11429;50.842;4.386;2023-04-24T04:30:52;10.50;;;6.70;;
22525;SDS011;11429;50.842;4.386;2023-04-24T04:33:22;10.38;;;6.22;;
22525;SDS011;11429;50.842;4.386;2023-04-24T04:35:51;11.48;;;6.85;;
22525;SDS011;11429;50.842;4.386;2023-04-24T04:38:20;9.60;;;6.93;;
22525;SDS011;11429;50.842;4.386;2023-04-24T04:40:46;9.00;;;6.80;;
22525;SDS011;11429;50.842;4.386;2023-04-24T04:43:11;10.68;;;6.65;;
22525;SDS011;11429;50.842;4.386;2023-04-24T04:45:38;9.60;;;6.43;;
22525;SDS011;11429;50.842;4.386;2023-04-24T04:48:06;9.27;;;6.53;;
22525;SDS011;11429;50.842;4.386;2023-04-24T04:50:34;8.73;;;6.40;;
22525;SDS011;11429;50.842;4.386;2023-04-24T04:53:02;7.38;;;6.05;;
22525;SDS011;11429;50.842;4.386;2023-04-24T04:55:28;8.07;;;7.03;;
22525;SDS011;11429;50.842;4.386;2023-04-24T04:57:53;10.40;;;7.43;;
22525;SDS011;11429;50.842;4.386;2023-04-24T05:00:21;12.75;;;8.07;;
22525;SDS011;11429;50.842;4.386;2023-04-24T05:02:46;12.70;;;9.07;;
22525;SDS011;11429;50.842;4.386;2023-04-24T05:05:12;13.02;;;9.35;;
22525;SDS011;11429;50.842;4.386;2023-04-24T05:07:38;15.85;;;11.10;;
22525;SDS011;11429;50.842;4.386;2023-04-24T05:10:03;15.32;;;11.23;;
22525;SDS011;11429;50.842;4.386;2023-04-24T05:12:30;19.30;;;11.88;;
22525;SDS011;11429;50.842;4.386;2023-04-24T05:14:55;15.48;;;11.10;;
22525;SDS011;11429;50.842;4.386;2023-04-24T05:17:21;17.55;;;11.52;;
22525;SDS011;11429;50.842;4.386;2023-04-24T05:19:46;17.30;;;11.73;;
22525;SDS011;11429;50.842;4.386;2023-04-24T05:22:13;22.50;;;11.93;;
22525;SDS011;11429;50.842;4.386;2023-04-24T05:24:38;19.02;;;13.18;;
22525;SDS011;11429;50.842;4.386;2023-04-24T05:27:04;19.60;;;12.52;;
22525;SDS011;11429;50.842;4.386;2023-04-24T05:29:33;19.45;;;12.32;;
22525;SDS011;11429;50.842;4.386;2023-04-24T05:31:59;14.93;;;11.45;;
22525;SDS011;11429;50.842;4.386;2023-04-24T05:34:25;17.55;;;11.93;;
22525;SDS011;11429;50.842;4.386;2023-04-24T05:36:51;18.58;;;12.38;;
22525;SDS011;11429;50.842;4.386;2023-04-24T05:39:17;18.33;;;12.40;;
22525;SDS011;11429;50.842;4.386;2023-04-24T05:41:43;18.75;;;12.07;;
22525;SDS011;11429;50.842;4.386;2023-04-24T05:44:09;20.15;;;11.48;;
22525;SDS011;11429;50.842;4.386;2023-04-24T05:46:34;16.15;;;11.70;;
22525;SDS011;11429;50.842;4.386;2023-04-24T05:49:00;20.90;;;12.50;;
22525;SDS011;11429;50.842;4.386;2023-04-24T05:51:27;22.08;;;12.43;;
22525;SDS011;11429;50.842;4.386;2023-04-24T05:53:52;18.33;;;12.20;;
22525;SDS011;11429;50.842;4.386;2023-04-24T05:56:18;19.90;;;11.50;;
22525;SDS011;11429;50.842;4.386;2023-04-24T05:58:45;18.25;;;12.63;;
22525;SDS011;11429;50.842;4.386;2023-04-24T06:01:11;17.63;;;11.23;;
22525;SDS011;11429;50.842;4.386;2023-04-24T06:03:38;17.42;;;11.80;;
22525;SDS011;11429;50.842;4.386;2023-04-24T06:06:05;16.05;;;12.10;;
22525;SDS011;11429;50.842;4.386;2023-04-24T06:08:31;18.10;;;12.10;;
22525;SDS011;11429;50.842;4.386;2023-04-24T06:10:57;20.10;;;12.15;;
22525;SDS011;11429;50.842;4.386;2023-04-24T06:13:23;20.27;;;12.43;;
22525;SDS011;11429;50.842;4.386;2023-04-24T06:15:49;23.08;;;12.52;;
22525;SDS011;11429;50.842;4.386;2023-04-24T06:18:15;21.60;;;13.02;;
22525;SDS011;11429;50.842;4.386;2023-04-24T06:20:41;22.77;;;12.75;;
22525;SDS011;11429;50.842;4.386;2023-04-24T06:23:07;17.33;;;12.25;;
22525;SDS011;11429;50.842;4.386;2023-04-24T06:25:32;19.25;;;12.57;;
22525;SDS011;11429;50.842;4.386;2023-04-24T06:27:58;20.83;;;12.75;;
22525;SDS011;11429;50.842;4.386;2023-04-24T06:30:24;21.88;;;12.93;;
22525;SDS011;11429;50.842;4.386;2023-04-24T06:32:50;24.17;;;12.55;;
22525;SDS011;11429;50.842;4.386;2023-04-24T06:35:16;23.35;;;12.88;;
22525;SDS011;11429;50.842;4.386;2023-04-24T06:37:42;23.98;;;13.52;;
22525;SDS011;11429;50.842;4.386;2023-04-24T06:40:08;23.25;;;13.85;;
22525;SDS011;11429;50.842;4.386;2023-04-24T06:42:35;21.00;;;13.60;;
22525;SDS011;11429;50.842;4.386;2023-04-24T06:45:01;26.70;;;14.48;;
22525;SDS011;11429;50.842;4.386;2023-04-24T06:47:27;23.65;;;14.85;;
22525;SDS011;11429;50.842;4.386;2023-04-24T06:49:52;33.50;;;17.38;;
22525;SDS011;11429;50.842;4.386;2023-04-24T06:52:19;26.15;;;15.73;;
22525;SDS011;11429;50.842;4.386;2023-04-24T06:54:44;25.73;;;15.90;;
22525;SDS011;11429;50.842;4.386;2023-04-24T06:57:10;26.42;;;16.90;;
22525;SDS011;11429;50.842;4.386;2023-04-24T06:59:37;30.58;;;17.15;;
22525;SDS011;11429;50.842;4.386;2023-04-24T07:02:02;27.73;;;16.33;;
22525;SDS011;11429;50.842;4.386;2023-04-24T07:04:28;29.73;;;17.70;;
22525;SDS011;11429;50.842;4.386;2023-04-24T07:06:55;34.15;;;17.17;;
22525;SDS011;11429;50.842;4.386;2023-04-24T07:09:21;31.35;;;17.55;;
22525;SDS011;11429;50.842;4.386;2023-04-24T07:11:48;30.85;;;17.85;;
22525;SDS011;11429;50.842;4.386;2023-04-24T07:14:15;31.73;;;17.70;;
22525;SDS011;11429;50.842;4.386;2023-04-24T07:16:41;28.45;;;16.42;;
22525;SDS011;11429;50.842;4.386;2023-04-24T07:19:07;27.63;;;16.85;;
22525;SDS011;11429;50.842;4.386;2023-04-24T07:21:33;28.38;;;15.60;;
22525;SDS011;11429;50.842;4.386;2023-04-24T07:23:59;24.52;;;15.73;;
22525;SDS011;11429;50.842;4.386;2023-04-24T07:26:25;24.13;;;14.32;;
22525;SDS011;11429;50.842;4.386;2023-04-24T07:28:51;22.02;;;12.57;;
22525;SDS011;11429;50.842;4.386;2023-04-24T07:31:17;24.48;;;13.60;;
22525;SDS011;11429;50.842;4.386;2023-04-24T07:33:43;22.50;;;12.00;;
22525;SDS011;11429;50.842;4.386;2023-04-24T07:36:08;18.88;;;12.48;;
22525;SDS011;11429;50.842;4.386;2023-04-24T07:38:40;20.05;;;12.00;;
22525;SDS011;11429;50.842;4.386;2023-04-24T07:41:08;21.85;;;12.30;;
22525;SDS011;11429;50.842;4.386;2023-04-24T07:43:35;21.20;;;11.00;;
22525;SDS011;11429;50.842;4.386;2023-04-24T07:46:01;19.20;;;11.75;;
22525;SDS011;11429;50.842;4.386;2023-04-24T07:48:27;18.15;;;10.55;;
22525;SDS011;11429;50.842;4.386;2023-04-24T07:50:53;18.98;;;11.00;;
22525;SDS011;11429;50.842;4.386;2023-04-24T07:53:19;22.23;;;11.95;;
22525;SDS011;11429;50.842;4.386;2023-04-24T07:55:45;23.95;;;12.38;;
22525;SDS011;11429;50.842;4.386;2023-04-24T07:58:11;19.60;;;12.63;;
22525;SDS011;11429;50.842;4.386;2023-04-24T08:00:36;21.00;;;12.90;;
22525;SDS011;11429;50.842;4.386;2023-04-24T08:03:02;22.27;;;11.90;;
22525;SDS011;11429;50.842;4.386;2023-04-24T08:05:28;24.08;;;12.02;;
22525;SDS011;11429;50.842;4.386;2023-04-24T08:07:54;21.30;;;11.63;;
22525;SDS011;11429;50.842;4.386;2023-04-24T08:10:21;18.38;;;10.70;;
22525;SDS011;11429;50.842;4.386;2023-04-24T08:12:47;20.08;;;10.90;;
22525;SDS011;11429;50.842;4.386;2023-04-24T08:15:16;17.02;;;10.45;;
22525;SDS011;11429;50.842;4.386;2023-04-24T08:17:42;18.48;;;9.93;;
22525;SDS011;11429;50.842;4.386;2023-04-24T08:20:08;16.40;;;9.40;;
22525;SDS011;11429;50.842;4.386;2023-04-24T08:22:41;16.75;;;9.32;;
22525;SDS011;11429;50.842;4.386;2023-04-24T08:25:08;14.85;;;8.02;;
22525;SDS011;11429;50.842;4.386;2023-04-24T08:27:35;19.30;;;8.13;;
22525;SDS011;11429;50.842;4.386;2023-04-24T08:30:02;17.10;;;8.25;;
22525;SDS011;11429;50.842;4.386;2023-04-24T08:32:28;19.80;;;7.68;;
22525;SDS011;11429;50.842;4.386;2023-04-24T08:34:55;20.08;;;8.35;;
22525;SDS011;11429;50.842;4.386;2023-04-24T08:37:23;13.73;;;7.57;;
22525;SDS011;11429;50.842;4.386;2023-04-24T08:39:49;17.77;;;8.02;;
22525;SDS011;11429;50.842;4.386;2023-04-24T08:42:16;21.38;;;7.85;;
22525;SDS011;11429;50.842;4.386;2023-04-24T08:44:44;14.63;;;7.88;;
22525;SDS011;11429;50.842;4.386;2023-04-24T08:47:11;15.93;;;7.47;;
22525;SDS011;11429;50.842;4.386;2023-04-24T08:49:37;19.60;;;7.90;;
22525;SDS011;11429;50.842;4.386;2023-04-24T08:52:06;14.88;;;6.90;;
22525;SDS011;11429;50.842;4.386;2023-04-24T08:54:35;15.80;;;7.05;;
22525;SDS011;11429;50.842;4.386;2023-04-24T08:57:02;16.13;;;7.00;;
22525;SDS011;11429;50.842;4.386;2023-04-24T08:59:29;17.38;;;6.97;;
22525;SDS011;11429;50.842;4.386;2023-04-24T09:01:55;15.55;;;5.57;;
22525;SDS011;11429;50.842;4.386;2023-04-24T09:04:22;15.60;;;6.65;;
22525;SDS011;11429;50.842;4.386;2023-04-24T09:06:54;14.10;;;5.57;;
22525;SDS011;11429;50.842;4.386;2023-04-24T09:09:22;13.23;;;4.85;;
22525;SDS011;11429;50.842;4.386;2023-04-24T09:11:52;10.60;;;5.53;;
22525;SDS011;11429;50.842;4.386;2023-04-24T09:14:21;11.02;;;5.32;;
22525;SDS011;11429;50.842;4.386;2023-04-24T09:16:48;9.23;;;4.60;;
22525;SDS011;11429;50.842;4.386;2023-04-24T09:19:14;12.52;;;5.25;;
22525;SDS011;11429;50.842;4.386;2023-04-24T09:21:40;9.65;;;4.95;;
22525;SDS011;11429;50.842;4.386;2023-04-24T09:24:14;12.77;;;5.18;;
22525;SDS011;11429;50.842;4.386;2023-04-24T09:26:48;12.63;;;4.72;;
22525;SDS011;11429;50.842;4.386;2023-04-24T09:29:15;9.35;;;4.35;;
22525;SDS011;11429;50.842;4.386;2023-04-24T09:31:41;13.60;;;5.03;;
22525;SDS011;11429;50.842;4.386;2023-04-24T09:34:08;14.52;;;5.43;;
22525;SDS011;11429;50.842;4.386;2023-04-24T09:36:38;12.00;;;5.47;;
22525;SDS011;11429;50.842;4.386;2023-04-24T09:39:06;16.10;;;5.53;;
22525;SDS011;11429;50.842;4.386;2023-04-24T09:41:34;12.02;;;5.65;;
22525;SDS011;11429;50.842;4.386;2023-04-24T09:44:13;11.13;;;5.05;;
22525;SDS011;11429;50.842;4.386;2023-04-24T09:46:40;21.73;;;10.55;;
22525;SDS011;11429;50.842;4.386;2023-04-24T09:49:08;8.38;;;3.85;;
22525;SDS011;11429;50.842;4.386;2023-04-24T09:51:36;10.38;;;7.25;;
22525;SDS011;11429;50.842;4.386;2023-04-24T09:54:03;10.02;;;3.95;;
22525;SDS011;11429;50.842;4.386;2023-04-24T09:56:33;11.68;;;4.20;;
22525;SDS011;11429;50.842;4.386;2023-04-24T09:59:08;12.00;;;4.15;;
22525;SDS011;11429;50.842;4.386;2023-04-24T10:01:34;10.07;;;4.50;;
22525;SDS011;11429;50.842;4.386;2023-04-24T10:04:00;9.88;;;3.97;;
22525;SDS011;11429;50.842;4.386;2023-04-24T10:06:35;8.48;;;4.53;;
22525;SDS011;11429;50.842;4.386;2023-04-24T10:09:02;6.57;;;3.80;;
22525;SDS011;11429;50.842;4.386;2023-04-24T10:11:28;12.40;;;5.03;;
22525;SDS011;11429;50.842;4.386;2023-04-24T10:13:58;11.90;;;4.55;;
22525;SDS011;11429;50.842;4.386;2023-04-24T10:16:24;10.38;;;4.78;;
22525;SDS011;11429;50.842;4.386;2023-04-24T10:18:52;7.00;;;3.60;;
22525;SDS011;11429;50.842;4.386;2023-04-24T10:21:18;7.03;;;4.25;;
22525;SDS011;11429;50.842;4.386;2023-04-24T10:23:43;9.57;;;4.30;;
22525;SDS011;11429;50.842;4.386;2023-04-24T10:26:14;8.57;;;4.38;;
22525;SDS011;11429;50.842;4.386;2023-04-24T10:28:45;10.63;;;4.70;;
22525;SDS011;11429;50.842;4.386;2023-04-24T10:31:12;10.55;;;4.72;;
22525;SDS011;11429;50.842;4.386;2023-04-24T10:33:39;9.18;;;4.60;;
22525;SDS011;11429;50.842;4.386;2023-04-24T10:36:07;10.13;;;4.35;;
22525;SDS011;11429;50.842;4.386;2023-04-24T10:38:35;10.65;;;4.53;;
22525;SDS011;11429;50.842;4.386;2023-04-24T10:41:08;9.70;;;5.18;;
22525;SDS011;11429;50.842;4.386;2023-04-24T10:43:39;6.40;;;4.75;;
22525;SDS011;11429;50.842;4.386;2023-04-24T10:46:06;8.23;;;4.72;;
22525;SDS011;11429;50.842;4.386;2023-04-24T10:48:33;9.57;;;4.63;;
22525;SDS011;11429;50.842;4.386;2023-04-24T10:50:59;8.82;;;4.78;;
22525;SDS011;11429;50.842;4.386;2023-04-24T10:53:29;10.88;;;5.50;;
22525;SDS011;11429;50.842;4.386;2023-04-24T10:56:06;8.05;;;4.72;;
22525;SDS011;11429;50.842;4.386;2023-04-24T10:58:38;10.13;;;5.20;;
22525;SDS011;11429;50.842;4.386;2023-04-24T11:01:22;8.80;;;5.10;;
22525;SDS011;11429;50.842;4.386;2023-04-24T11:03:56;9.63;;;4.53;;
22525;SDS011;11429;50.842;4.386;2023-04-24T11:06:30;9.57;;;4.72;;
22525;SDS011;11429;50.842;4.386;2023-04-24T11:09:06;11.07;;;5.15;;
22525;SDS011;11429;50.842;4.386;2023-04-24T11:16:26;10.07;;;5.60;;
22525;SDS011;11429;50.842;4.386;2023-04-24T11:19:02;10.70;;;5.47;;
22525;SDS011;11429;50.842;4.386;2023-04-24T11:21:43;11.00;;;5.50;;
22525;SDS011;11429;50.842;4.386;2023-04-24T11:34:51;9.57;;;4.90;;
22525;SDS011;11429;50.842;4.386;2023-04-24T11:37:21;8.63;;;4.75;;
22525;SDS011;11429;50.842;4.386;2023-04-24T11:39:56;6.45;;;4.30;;
22525;SDS011;11429;50.842;4.386;2023-04-24T11:42:23;10.98;;;5.70;;
22525;SDS011;11429;50.842;4.386;2023-04-24T11:44:51;10.90;;;5.50;;
22525;SDS011;11429;50.842;4.386;2023-04-24T11:47:18;9.70;;;5.20;;
22525;SDS011;11429;50.842;4.386;2023-04-24T11:49:44;7.85;;;4.88;;
22525;SDS011;11429;50.842;4.386;2023-04-24T11:52:09;12.75;;;6.20;;
22525;SDS011;11429;50.842;4.386;2023-04-24T11:54:36;8.00;;;5.10;;
22525;SDS011;11429;50.842;4.386;2023-04-24T11:57:05;12.48;;;5.93;;
22525;SDS011;11429;50.842;4.386;2023-04-24T11:59:40;8.80;;;5.30;;
22525;SDS011;11429;50.842;4.386;2023-04-24T12:02:06;10.60;;;5.82;;
22525;SDS011;11429;50.842;4.386;2023-04-24T12:04:41;8.73;;;5.20;;
22525;SDS011;11429;50.842;4.386;2023-04-24T12:07:07;10.38;;;6.00;;
22525;SDS011;11429;50.842;4.386;2023-04-24T12:09:42;9.45;;;5.80;;
22525;SDS011;11429;50.842;4.386;2023-04-24T12:12:12;10.93;;;8.23;;
22525;SDS011;11429;50.842;4.386;2023-04-24T12:14:47;11.27;;;5.88;;
22525;SDS011;11429;50.842;4.386;2023-04-24T12:17:15;9.55;;;6.35;;
22525;SDS011;11429;50.842;4.386;2023-04-24T12:19:47;12.00;;;6.65;;
22525;SDS011;11429;50.842;4.386;2023-04-24T12:22:13;7.55;;;5.70;;
22525;SDS011;11429;50.842;4.386;2023-04-24T12:24:55;10.30;;;5.97;;
22525;SDS011;11429;50.842;4.386;2023-04-24T12:27:26;10.70;;;5.70;;
22525;SDS011;11429;50.842;4.386;2023-04-24T12:29:56;10.70;;;5.68;;
22525;SDS011;11429;50.842;4.386;2023-04-24T12:32:23;10.27;;;5.43;;
22525;SDS011;11429;50.842;4.386;2023-04-24T12:34:53;8.07;;;5.05;;
22525;SDS011;11429;50.842;4.386;2023-04-24T12:37:20;6.80;;;4.85;;
22525;SDS011;11429;50.842;4.386;2023-04-24T12:42:36;10.32;;;4.82;;
22525;SDS011;11429;50.842;4.386;2023-04-24T12:45:07;8.40;;;5.18;;
22525;SDS011;11429;50.842;4.386;2023-04-24T12:47:33;8.90;;;5.07;;
22525;SDS011;11429;50.842;4.386;2023-04-24T12:50:06;7.85;;;4.72;;
22525;SDS011;11429;50.842;4.386;2023-04-24T12:52:47;9.50;;;4.07;;
22525;SDS011;11429;50.842;4.386;2023-04-24T12:55:13;8.77;;;4.20;;
22525;SDS011;11429;50.842;4.386;2023-04-24T12:57:39;9.77;;;4.32;;
22525;SDS011;11429;50.842;4.386;2023-04-24T13:00:05;7.72;;;4.30;;
22525;SDS011;11429;50.842;4.386;2023-04-24T13:02:33;10.20;;;4.30;;
22525;SDS011;11429;50.842;4.386;2023-04-24T13:04:59;9.73;;;3.97;;
22525;SDS011;11429;50.842;4.386;2023-04-24T13:07:26;7.80;;;4.00;;
22525;SDS011;11429;50.842;4.386;2023-04-24T13:09:53;5.07;;;3.70;;
22525;SDS011;11429;50.842;4.386;2023-04-24T13:12:20;8.43;;;4.30;;
22525;SDS011;11429;50.842;4.386;2023-04-24T13:14:46;7.65;;;4.07;;
22525;SDS011;11429;50.842;4.386;2023-04-24T13:17:12;6.55;;;4.15;;
22525;SDS011;11429;50.842;4.386;2023-04-24T13:19:38;5.95;;;3.67;;
22525;SDS011;11429;50.842;4.386;2023-04-24T13:22:05;6.97;;;3.67;;
22525;SDS011;11429;50.842;4.386;2023-04-24T13:24:32;6.70;;;4.07;;
22525;SDS011;11429;50.842;4.386;2023-04-24T13:26:59;7.05;;;3.30;;
22525;SDS011;11429;50.842;4.386;2023-04-24T13:29:25;6.28;;;3.80;;
22525;SDS011;11429;50.842;4.386;2023-04-24T13:31:52;7.20;;;3.47;;
22525;SDS011;11429;50.842;4.386;2023-04-24T13:34:22;7.07;;;3.13;;
22525;SDS011;11429;50.842;4.386;2023-04-24T13:36:50;6.18;;;2.95;;
22525;SDS011;11429;50.842;4.386;2023-04-24T13:39:17;7.53;;;3.20;;
22525;SDS011;11429;50.842;4.386;2023-04-24T13:41:43;6.25;;;3.20;;
22525;SDS011;11429;50.842;4.386;2023-04-24T13:44:09;5.70;;;3.17;;
22525;SDS011;11429;50.842;4.386;2023-04-24T13:46:35;6.13;;;2.85;;
22525;SDS011;11429;50.842;4.386;2023-04-24T13:49:01;7.43;;;3.35;;
22525;SDS011;11429;50.842;4.386;2023-04-24T13:51:28;5.25;;;2.85;;
22525;SDS011;11429;50.842;4.386;2023-04-24T13:53:55;9.20;;;2.85;;
22525;SDS011;11429;50.842;4.386;2023-04-24T13:56:21;8.82;;;3.53;;
22525;SDS011;11429;50.842;4.386;2023-04-24T13:58:47;6.22;;;2.90;;
22525;SDS011;11429;50.842;4.386;2023-04-24T14:01:14;5.30;;;2.70;;
22525;SDS011;11429;50.842;4.386;2023-04-24T14:03:40;5.93;;;2.70;;
22525;SDS011;11429;50.842;4.386;2023-04-24T14:06:08;5.13;;;2.53;;
22525;SDS011;11429;50.842;4.386;2023-04-24T14:08:34;4.68;;;2.40;;
22525;SDS011;11429;50.842;4.386;2023-04-24T14:11:00;4.07;;;2.35;;
22525;SDS011;11429;50.842;4.386;2023-04-24T14:13:26;5.85;;;2.50;;
22525;SDS011;11429;50.842;4.386;2023-04-24T14:15:52;3.67;;;2.08;;
22525;SDS011;11429;50.842;4.386;2023-04-24T14:18:18;5.40;;;2.15;;
22525;SDS011;11429;50.842;4.386;2023-04-24T14:20:44;6.97;;;2.97;;
22525;SDS011;11429;50.842;4.386;2023-04-24T14:23:10;9.50;;;2.58;;
22525;SDS011;11429;50.842;4.386;2023-04-24T14:25:36;4.97;;;2.53;;
22525;SDS011;11429;50.842;4.386;2023-04-24T14:28:01;4.82;;;2.00;;
22525;SDS011;11429;50.842;4.386;2023-04-24T14:30:27;3.92;;;2.15;;
22525;SDS011;11429;50.842;4.386;2023-04-24T14:32:53;4.63;;;2.30;;
22525;SDS011;11429;50.842;4.386;2023-04-24T14:35:19;5.80;;;2.35;;
22525;SDS011;11429;50.842;4.386;2023-04-24T14:37:44;5.75;;;1.77;;
22525;SDS011;11429;50.842;4.386;2023-04-24T14:40:10;5.00;;;2.03;;
22525;SDS011;11429;50.842;4.386;2023-04-24T14:42:36;3.40;;;1.60;;
22525;SDS011;11429;50.842;4.386;2023-04-24T14:45:02;2.67;;;1.58;;
22525;SDS011;11429;50.842;4.386;2023-04-24T14:47:28;4.65;;;2.20;;